KLM249 KBOS-EHAM
Flight info
| Callsign | KLM249 |
|---|---|
| Flight time | N/A |
| Altitude | 39000 |
| Route | LBSTA8 LBSTA DCT MIILS N691A NEEKO/M085F400 NATV NETKI/N0488F410 DCT REVNU DCT BOFUM Q37 MALUD UL975 WAL M16 DOLAS L603 LAMSO |
| Aircraft | A359/H-SDE2E3GHIJ3J4J5LM1ORWXY/LB1D1 |
Departure
| Time | 2026-05-06 23:05 |
|---|---|
| Airport | Boston Logan International Airport (KBOS) |
Arrival
| Time | N/A |
|---|---|
| Airport | Amsterdam Airport Schiphol (EHAM) |
| Time | Latitude | Longitude | Altitude | Speed | Heading |
|---|---|---|---|---|---|
| 2026-05-06 22:43 | 42.36092 | -71.02415 | 30 ft | 0 kts | 308° |
| 2026-05-06 22:52 | 42.36090 | -71.02413 | 36 ft | 3 kts | 304° |
| 2026-05-06 22:52 | 42.36083 | -71.02389 | 36 ft | 3 kts | 264° |
| 2026-05-06 22:52 | 42.36088 | -71.02365 | 37 ft | 3 kts | 225° |
| 2026-05-06 22:53 | 42.36103 | -71.02351 | 31 ft | 3 kts | 187° |
| 2026-05-06 22:53 | 42.36118 | -71.02351 | 31 ft | 0 kts | 160° |
| 2026-05-06 22:54 | 42.36102 | -71.02338 | 31 ft | 7 kts | 148° |
| 2026-05-06 22:54 | 42.36071 | -71.02311 | 31 ft | 0 kts | 145° |
| 2026-05-06 22:55 | 42.36068 | -71.02308 | 31 ft | 0 kts | 144° |
| 2026-05-06 22:56 | 42.36063 | -71.02302 | 31 ft | 8 kts | 140° |
| 2026-05-06 22:56 | 42.36023 | -71.02233 | 31 ft | 10 kts | 122° |
| 2026-05-06 22:57 | 42.35990 | -71.02161 | 31 ft | 9 kts | 121° |
| 2026-05-06 22:57 | 42.35960 | -71.02093 | 31 ft | 7 kts | 121° |
| 2026-05-06 22:57 | 42.35933 | -71.02031 | 32 ft | 8 kts | 121° |
| 2026-05-06 22:57 | 42.35901 | -71.01958 | 33 ft | 9 kts | 118° |
| 2026-05-06 22:58 | 42.35870 | -71.01877 | 34 ft | 10 kts | 117° |
| 2026-05-06 22:58 | 42.35847 | -71.01791 | 35 ft | 10 kts | 105° |
| 2026-05-06 22:58 | 42.35832 | -71.01695 | 35 ft | 11 kts | 101° |
| 2026-05-06 22:58 | 42.35837 | -71.01599 | 36 ft | 10 kts | 56° |
| 2026-05-06 22:59 | 42.35902 | -71.01542 | 35 ft | 13 kts | 21° |
| 2026-05-06 22:59 | 42.36000 | -71.01494 | 34 ft | 16 kts | 19° |
| 2026-05-06 22:59 | 42.36100 | -71.01446 | 35 ft | 15 kts | 19° |
| 2026-05-06 22:59 | 42.36204 | -71.01396 | 32 ft | 18 kts | 19° |
| 2026-05-06 23:00 | 42.36323 | -71.01339 | 31 ft | 18 kts | 19° |
| 2026-05-06 23:00 | 42.36460 | -71.01273 | 30 ft | 22 kts | 19° |
| 2026-05-06 23:00 | 42.36601 | -71.01205 | 33 ft | 20 kts | 19° |
| 2026-05-06 23:00 | 42.36728 | -71.01148 | 34 ft | 19 kts | 8° |
| 2026-05-06 23:01 | 42.36843 | -71.01213 | 30 ft | 14 kts | 332° |
| 2026-05-06 23:01 | 42.36893 | -71.01206 | 30 ft | 8 kts | 30° |
| 2026-05-06 23:01 | 42.36952 | -71.01145 | 31 ft | 11 kts | 36° |
| 2026-05-06 23:01 | 42.37049 | -71.01067 | 29 ft | 29 kts | 27° |
| 2026-05-06 23:02 | 42.37207 | -71.00964 | 29 ft | 20 kts | 26° |
| 2026-05-06 23:02 | 42.37243 | -71.00941 | 28 ft | 0 kts | 26° |
| 2026-05-06 23:02 | 42.37338 | -71.00885 | 28 ft | 32 kts | 21° |
| 2026-05-06 23:02 | 42.37511 | -71.00800 | 30 ft | 23 kts | 19° |
| 2026-05-06 23:03 | 42.37659 | -71.00732 | 33 ft | 22 kts | 19° |
| 2026-05-06 23:03 | 42.37793 | -71.00668 | 35 ft | 16 kts | 21° |
| 2026-05-06 23:03 | 42.37831 | -71.00576 | 34 ft | 12 kts | 95° |
| 2026-05-06 23:03 | 42.37797 | -71.00484 | 32 ft | 7 kts | 158° |
| 2026-05-06 23:04 | 42.37767 | -71.00488 | 32 ft | 0 kts | 194° |
| 2026-05-06 23:04 | 42.37585 | -71.00565 | 33 ft | 66 kts | 199° |
| 2026-05-06 23:04 | 42.36909 | -71.00905 | 35 ft | 138 kts | 200° |
| 2026-05-06 23:04 | 42.35929 | -71.01404 | 533 ft | 154 kts | 201° |
| 2026-05-06 23:05 | 42.34894 | -71.01726 | 1269 ft | 154 kts | 184° |
| 2026-05-06 23:05 | 42.33774 | -71.01317 | 1664 ft | 188 kts | 153° |
| 2026-05-06 23:05 | 42.32800 | -70.99961 | 2216 ft | 211 kts | 136° |
| 2026-05-06 23:05 | 42.31885 | -70.98298 | 2697 ft | 230 kts | 133° |
| 2026-05-06 23:06 | 42.31214 | -70.96259 | 3247 ft | 249 kts | 103° |
| 2026-05-06 23:06 | 42.31309 | -70.93827 | 3683 ft | 272 kts | 81° |
| 2026-05-06 23:06 | 42.31727 | -70.91214 | 4000 ft | 294 kts | 78° |
| 2026-05-06 23:06 | 42.32181 | -70.88509 | 4750 ft | 296 kts | 78° |
| 2026-05-06 23:07 | 42.32625 | -70.85769 | 5484 ft | 301 kts | 80° |
| 2026-05-06 23:07 | 42.33063 | -70.82966 | 6195 ft | 308 kts | 81° |
| 2026-05-06 23:07 | 42.33493 | -70.80143 | 6927 ft | 313 kts | 81° |
| 2026-05-06 23:07 | 42.34115 | -70.77296 | 7536 ft | 319 kts | 64° |
| 2026-05-06 23:08 | 42.35543 | -70.75038 | 8122 ft | 317 kts | 31° |
| 2026-05-06 23:08 | 42.37518 | -70.73829 | 8736 ft | 311 kts | 12° |
| 2026-05-06 23:08 | 42.39592 | -70.72990 | 9387 ft | 311 kts | 11° |
| 2026-05-06 23:08 | 42.41672 | -70.72173 | 9974 ft | 314 kts | 11° |
| 2026-05-06 23:09 | 42.43814 | -70.71316 | 10219 ft | 328 kts | 11° |
| 2026-05-06 23:09 | 42.46057 | -70.70437 | 10413 ft | 343 kts | 8° |
| 2026-05-06 23:09 | 42.48435 | -70.69733 | 10619 ft | 355 kts | 6° |
| 2026-05-06 23:09 | 42.50902 | -70.69052 | 10817 ft | 368 kts | 6° |
| 2026-05-06 23:10 | 42.53456 | -70.68325 | 11019 ft | 381 kts | 7° |
| 2026-05-06 23:10 | 42.56082 | -70.67556 | 11255 ft | 390 kts | 7° |
| 2026-05-06 23:10 | 42.58751 | -70.66762 | 11668 ft | 394 kts | 7° |
| 2026-05-06 23:10 | 42.61419 | -70.65961 | 12073 ft | 398 kts | 7° |
| 2026-05-06 23:11 | 42.64149 | -70.65141 | 12538 ft | 404 kts | 7° |
| 2026-05-06 23:11 | 42.66910 | -70.64308 | 13245 ft | 408 kts | 7° |
| 2026-05-06 23:11 | 42.69700 | -70.63521 | 13862 ft | 411 kts | 4° |
| 2026-05-06 23:11 | 42.72542 | -70.62908 | 14442 ft | 415 kts | 2° |
| 2026-05-06 23:12 | 42.75412 | -70.62316 | 15077 ft | 419 kts | 3° |
| 2026-05-06 23:12 | 42.78292 | -70.61628 | 15768 ft | 423 kts | 7° |
| 2026-05-06 23:12 | 42.81119 | -70.60337 | 16383 ft | 435 kts | 20° |
| 2026-05-06 23:12 | 42.83859 | -70.58487 | 16976 ft | 442 kts | 25° |
| 2026-05-06 23:13 | 42.86518 | -70.56422 | 17571 ft | 448 kts | 27° |
| 2026-05-06 23:13 | 42.89201 | -70.54206 | 18130 ft | 454 kts | 28° |
| 2026-05-06 23:13 | 42.91913 | -70.51927 | 18558 ft | 460 kts | 28° |
| 2026-05-06 23:13 | 42.94649 | -70.49632 | 19150 ft | 463 kts | 28° |
| 2026-05-06 23:14 | 42.97407 | -70.47341 | 19745 ft | 465 kts | 28° |
| 2026-05-06 23:14 | 43.00196 | -70.45046 | 20302 ft | 469 kts | 28° |
| 2026-05-06 23:14 | 43.03011 | -70.42746 | 20871 ft | 473 kts | 28° |
| 2026-05-06 23:14 | 43.05850 | -70.40435 | 21445 ft | 477 kts | 28° |
| 2026-05-06 23:15 | 43.08723 | -70.38100 | 22021 ft | 481 kts | 28° |
| 2026-05-06 23:15 | 43.11608 | -70.35754 | 22616 ft | 485 kts | 28° |
| 2026-05-06 23:15 | 43.14518 | -70.33384 | 23177 ft | 489 kts | 28° |
| 2026-05-06 23:15 | 43.17430 | -70.31008 | 23689 ft | 493 kts | 28° |
| 2026-05-06 23:16 | 43.20390 | -70.28590 | 24146 ft | 497 kts | 28° |
| 2026-05-06 23:16 | 43.23362 | -70.26158 | 24638 ft | 500 kts | 27° |
| 2026-05-06 23:16 | 43.26366 | -70.23697 | 25135 ft | 503 kts | 27° |
| 2026-05-06 23:16 | 43.29386 | -70.21221 | 25608 ft | 507 kts | 27° |
| 2026-05-06 23:17 | 43.32421 | -70.18728 | 26106 ft | 510 kts | 27° |
| 2026-05-06 23:17 | 43.35478 | -70.16215 | 26604 ft | 513 kts | 27° |
| 2026-05-06 23:17 | 43.38554 | -70.13683 | 27101 ft | 516 kts | 27° |
| 2026-05-06 23:17 | 43.41599 | -70.11174 | 27553 ft | 519 kts | 26° |
| 2026-05-06 23:18 | 43.44708 | -70.08610 | 28045 ft | 522 kts | 27° |
| 2026-05-06 23:18 | 43.47839 | -70.06023 | 28547 ft | 524 kts | 27° |
| 2026-05-06 23:18 | 43.50967 | -70.03435 | 29004 ft | 527 kts | 27° |
| 2026-05-06 23:18 | 43.54122 | -70.00821 | 29454 ft | 530 kts | 27° |
| 2026-05-06 23:19 | 43.57296 | -69.98189 | 29882 ft | 533 kts | 27° |
| 2026-05-06 23:19 | 43.60481 | -69.95546 | 30212 ft | 536 kts | 27° |
| 2026-05-06 23:19 | 43.63691 | -69.92879 | 30500 ft | 540 kts | 27° |
| 2026-05-06 23:19 | 43.66923 | -69.90189 | 30815 ft | 543 kts | 27° |
| 2026-05-06 23:20 | 43.70126 | -69.87520 | 31133 ft | 545 kts | 27° |
| 2026-05-06 23:20 | 43.73394 | -69.84794 | 31334 ft | 550 kts | 27° |
| 2026-05-06 23:20 | 43.76678 | -69.82051 | 31607 ft | 553 kts | 27° |
| 2026-05-06 23:20 | 43.79986 | -69.79283 | 31918 ft | 555 kts | 27° |
| 2026-05-06 23:21 | 43.83283 | -69.76519 | 32312 ft | 555 kts | 27° |
| 2026-05-06 23:21 | 43.86585 | -69.73745 | 32740 ft | 554 kts | 26° |